createdAt,value
2018-10-21T00:00:13.513Z,3.50
2018-10-21T00:02:43.405Z,3.40
2018-10-21T00:05:14.229Z,3.40
2018-10-21T00:07:45.093Z,3.40
2018-10-21T00:10:19.713Z,3.30
2018-10-21T00:12:50.530Z,3.30
2018-10-21T00:15:25.244Z,3.20
2018-10-21T00:17:55.069Z,3.20
2018-10-21T00:20:26.944Z,3.20
2018-10-21T00:22:56.920Z,3.30
2018-10-21T00:25:28.784Z,3.50
2018-10-21T00:27:59.745Z,3.60
2018-10-21T00:30:29.701Z,3.70
2018-10-21T00:33:05.721Z,3.80
2018-10-21T00:35:36.521Z,3.80
2018-10-21T00:38:07.408Z,3.90
2018-10-21T00:40:37.712Z,3.90
2018-10-21T00:43:15.108Z,4.00
2018-10-21T00:45:45.018Z,4.00
2018-10-21T00:48:16.052Z,4.00
2018-10-21T00:50:46.013Z,3.80
2018-10-21T00:53:15.992Z,3.80
2018-10-21T00:55:46.828Z,3.70
2018-10-21T00:58:17.638Z,3.70
2018-10-21T01:00:53.050Z,3.60
2018-10-21T01:03:23.893Z,3.60
2018-10-21T01:05:58.485Z,3.70
2018-10-21T01:08:28.352Z,3.70
2018-10-21T01:10:58.276Z,3.80
2018-10-21T01:13:28.104Z,3.80
2018-10-21T01:15:58.109Z,3.90
2018-10-21T01:18:30.996Z,3.90
2018-10-21T01:21:02.943Z,3.90
2018-10-21T01:23:33.685Z,4.00
2018-10-21T01:26:05.137Z,4.10
2018-10-21T01:28:35.060Z,4.20
2018-10-21T01:31:05.440Z,4.30
2018-10-21T01:33:36.308Z,4.40
2018-10-21T01:36:12.779Z,4.50
2018-10-21T01:38:43.576Z,4.60
2018-10-21T01:41:15.476Z,4.70
2018-10-21T01:43:45.393Z,4.80
2018-10-21T01:46:15.325Z,4.80
2018-10-21T01:48:48.268Z,4.90
2018-10-21T01:51:18.269Z,4.90
2018-10-21T01:53:49.000Z,5.00
2018-10-21T01:56:19.893Z,5.00
2018-10-21T01:58:57.165Z,5.10
2018-10-21T02:01:30.640Z,5.20
2018-10-21T02:04:01.506Z,5.20
2018-10-21T02:06:31.410Z,5.20
2018-10-21T02:09:06.813Z,5.20
2018-10-21T02:11:38.628Z,5.10
2018-10-21T02:14:11.804Z,5.20
2018-10-21T02:16:42.653Z,5.20
2018-10-21T02:19:12.561Z,5.20
2018-10-21T02:21:42.440Z,5.20
2018-10-21T02:24:15.649Z,5.20
2018-10-21T02:26:46.579Z,5.20
2018-10-21T02:29:18.309Z,5.30
2018-10-21T02:31:51.289Z,5.30
2018-10-21T02:34:21.105Z,5.30
2018-10-21T02:36:50.969Z,5.40
2018-10-21T02:39:22.781Z,5.40
2018-10-21T02:41:56.904Z,5.40
2018-10-21T02:44:27.724Z,5.50
2018-10-21T02:46:59.905Z,5.50
2018-10-21T02:49:30.757Z,5.50
2018-10-21T02:52:06.809Z,5.60
2018-10-21T02:54:38.673Z,5.70
2018-10-21T02:57:12.007Z,5.70
2018-10-21T02:59:48.053Z,5.80
2018-10-21T03:02:18.916Z,5.80
2018-10-21T03:04:49.360Z,5.70
2018-10-21T03:07:19.204Z,5.70
2018-10-21T03:09:49.188Z,5.70
2018-10-21T03:12:22.956Z,5.70
2018-10-21T03:14:54.654Z,5.70
2018-10-21T03:17:26.793Z,5.70
2018-10-21T03:20:00.929Z,5.70
2018-10-21T03:22:31.086Z,5.70
2018-10-21T03:25:01.013Z,5.70
2018-10-21T03:27:30.933Z,5.70
2018-10-21T03:30:02.745Z,5.70
2018-10-21T03:32:36.561Z,5.70
2018-10-21T03:35:11.721Z,5.70
2018-10-21T03:37:42.549Z,5.70
2018-10-21T03:40:12.501Z,5.70
2018-10-21T03:42:42.381Z,5.60
2018-10-21T03:45:12.197Z,5.60
2018-10-21T03:47:44.005Z,5.60
2018-10-21T03:50:18.601Z,5.60
2018-10-21T03:52:48.840Z,5.60
2018-10-21T03:55:19.724Z,5.60
2018-10-21T03:57:50.516Z,5.60
2018-10-21T04:00:23.912Z,5.60
2018-10-21T04:02:54.812Z,5.50
2018-10-21T04:05:26.705Z,5.40
2018-10-21T04:07:57.601Z,5.40
2018-10-21T04:10:27.528Z,5.30
2018-10-21T04:12:57.808Z,5.20
2018-10-21T04:15:33.012Z,5.00
2018-10-21T04:18:03.927Z,4.90
2018-10-21T04:20:41.908Z,4.80
2018-10-21T04:23:11.843Z,4.80
2018-10-21T04:25:42.681Z,4.70
2018-10-21T04:28:16.424Z,4.60
2018-10-21T04:30:46.276Z,4.50
2018-10-21T04:33:46.621Z,4.40
2018-10-21T04:36:20.488Z,4.30
2018-10-21T04:40:16.892Z,4.30
2018-10-21T04:42:48.024Z,4.10
2018-10-21T04:45:20.297Z,3.90
2018-10-21T04:47:53.428Z,3.80
2018-10-21T04:50:25.348Z,3.70
2018-10-21T04:52:56.225Z,3.60
2018-10-21T04:55:27.083Z,3.60
2018-10-21T04:57:57.032Z,3.60
2018-10-21T05:00:30.476Z,3.50
2018-10-21T05:03:02.313Z,3.50
2018-10-21T05:05:35.841Z,3.60
2018-10-21T05:08:06.663Z,3.70
2018-10-21T05:10:38.513Z,3.80
2018-10-21T05:13:12.262Z,3.90
2018-10-21T05:15:43.056Z,4.00
2018-10-21T05:18:13.888Z,4.00
2018-10-21T05:20:43.712Z,4.10
2018-10-21T05:23:14.661Z,4.10
2018-10-21T05:25:45.533Z,4.20
2018-10-21T05:28:15.727Z,4.20
2018-10-21T05:30:45.537Z,4.20
2018-10-21T05:33:15.417Z,4.20
2018-10-21T05:35:45.248Z,4.10
2018-10-21T05:38:16.114Z,4.10
2018-10-21T05:40:51.347Z,4.10
2018-10-21T05:43:21.277Z,4.10
2018-10-21T05:45:54.228Z,4.10
2018-10-21T05:48:26.108Z,4.30
2018-10-21T05:50:57.936Z,4.30
2018-10-21T05:53:31.628Z,4.40
2018-10-21T05:56:01.467Z,4.50
2018-10-21T05:58:35.562Z,4.60
2018-10-21T06:01:08.427Z,4.70
2018-10-21T06:03:39.464Z,4.70
2018-10-21T06:06:10.889Z,4.70
2018-10-21T06:08:41.756Z,4.80
2018-10-21T06:11:12.581Z,4.90
2018-10-21T06:13:42.415Z,4.90
2018-10-21T06:16:13.267Z,5.00
2018-10-21T06:18:43.149Z,5.00
2018-10-21T06:21:14.945Z,5.10
2018-10-21T06:23:45.871Z,5.20
2018-10-21T06:26:15.661Z,5.10
2018-10-21T06:28:45.489Z,5.10
2018-10-21T06:31:16.301Z,5.10
2018-10-21T06:33:49.392Z,5.30
2018-10-21T06:36:19.061Z,5.40
2018-10-21T06:38:48.835Z,5.60
2018-10-21T06:41:28.673Z,5.80
2018-10-21T06:43:58.489Z,6.20
2018-10-21T06:46:29.329Z,6.90
2018-10-21T06:49:08.248Z,7.50
2018-10-21T06:51:39.121Z,8.30
2018-10-21T06:54:08.905Z,9.10
2018-10-21T06:56:38.970Z,9.70
2018-10-21T06:59:10.557Z,10.30
2018-10-21T07:01:43.469Z,10.90
2018-10-21T07:04:13.473Z,11.60
2018-10-21T07:06:51.065Z,12.20
2018-10-21T07:09:20.841Z,12.70
2018-10-21T07:11:51.697Z,13.10
2018-10-21T07:14:21.532Z,13.60
2018-10-21T07:16:58.102Z,13.80
2018-10-21T07:19:28.881Z,13.90
2018-10-21T07:22:03.814Z,14.10
2018-10-21T07:24:33.657Z,14.40
2018-10-21T07:27:04.934Z,14.80
2018-10-21T07:29:34.837Z,15.00
2018-10-21T07:32:18.297Z,15.30
2018-10-21T07:34:49.117Z,16.00
2018-10-21T07:37:19.033Z,17.00
2018-10-21T07:39:48.929Z,17.50
2018-10-21T07:42:23.601Z,18.00
2018-10-21T07:44:55.425Z,18.30
2018-10-21T07:47:29.553Z,18.60
2018-10-21T07:50:05.385Z,18.80
2018-10-21T07:52:35.457Z,19.30
2018-10-21T07:55:15.881Z,19.40
2018-10-21T07:57:59.239Z,19.50
2018-10-21T08:00:29.089Z,19.80
2018-10-21T08:02:59.012Z,20.20
2018-10-21T08:05:46.097Z,20.90
2018-10-21T08:08:20.654Z,20.90
2018-10-21T08:10:51.565Z,20.50
2018-10-21T08:13:26.301Z,20.20
2018-10-21T08:15:58.123Z,20.00
2018-10-21T08:18:28.961Z,19.80
2018-10-21T08:21:11.448Z,18.90
2018-10-21T08:23:42.281Z,18.10
2018-10-21T08:26:12.184Z,17.10
2018-10-21T08:28:42.049Z,17.00
2018-10-21T08:31:11.953Z,16.80
2018-10-21T08:33:42.781Z,16.80
2018-10-21T08:36:12.765Z,16.90
2018-10-21T08:38:44.609Z,17.20
2018-10-21T08:41:14.537Z,17.90
2018-10-21T08:43:49.876Z,18.70
2018-10-21T08:46:19.819Z,18.60
2018-10-21T08:48:54.441Z,17.90
2018-10-21T08:51:24.409Z,18.00
2018-10-21T08:53:56.281Z,17.60
2018-10-21T08:56:27.169Z,18.60
2018-10-21T08:58:57.572Z,19.00
2018-10-21T09:01:28.522Z,20.30
2018-10-21T09:04:00.422Z,20.40
2018-10-21T09:06:30.208Z,19.50
2018-10-21T09:09:04.792Z,19.10
2018-10-21T09:11:35.708Z,19.20
2018-10-21T09:14:06.520Z,18.30
2018-10-21T09:16:36.446Z,18.20
2018-10-21T09:19:07.398Z,18.10
2018-10-21T09:21:37.539Z,18.30
2018-10-21T09:24:08.383Z,19.00
2018-10-21T09:26:39.276Z,19.60
2018-10-21T09:29:09.300Z,18.90
2018-10-21T09:31:39.208Z,18.80
2018-10-21T09:34:11.286Z,18.90
2018-10-21T09:36:41.216Z,19.20
2018-10-21T09:39:13.277Z,18.60
2018-10-21T09:41:44.156Z,18.70
2018-10-21T09:44:17.449Z,18.70
2018-10-21T09:46:53.741Z,18.40
2018-10-21T09:49:24.313Z,19.20
2018-10-21T09:51:54.167Z,19.90
2018-10-21T09:54:26.065Z,20.20
2018-10-21T09:56:55.917Z,20.30
2018-10-21T09:59:32.525Z,20.40
2018-10-21T10:02:14.028Z,20.70
2018-10-21T10:04:43.837Z,20.60
2018-10-21T10:07:14.888Z,20.50
2018-10-21T10:09:44.720Z,21.30
2018-10-21T10:12:16.429Z,23.10
2018-10-21T10:14:48.380Z,23.00
2018-10-21T10:17:28.007Z,22.40
2018-10-21T10:19:57.855Z,22.80
2018-10-21T10:22:27.980Z,22.00
2018-10-21T10:24:57.999Z,22.10
2018-10-21T10:27:32.543Z,22.10
2018-10-21T10:30:09.760Z,22.50
2018-10-21T10:32:41.991Z,22.50
2018-10-21T10:35:12.985Z,23.20
2018-10-21T10:37:43.900Z,23.40
2018-10-21T10:40:14.320Z,23.70
2018-10-21T10:42:45.053Z,25.50
2018-10-21T10:45:15.989Z,25.60
2018-10-21T10:47:47.313Z,26.20
2018-10-21T10:50:17.252Z,24.40
2018-10-21T10:52:47.150Z,22.90
2018-10-21T10:55:17.133Z,23.60
2018-10-21T10:57:52.312Z,25.60
2018-10-21T11:00:28.823Z,27.30
2018-10-21T11:03:02.113Z,28.60
2018-10-21T11:05:36.399Z,29.60
2018-10-21T11:08:09.576Z,27.70
2018-10-21T11:10:39.680Z,27.70
2018-10-21T11:13:09.657Z,25.00
2018-10-21T11:15:42.022Z,22.80
2018-10-21T11:18:12.436Z,21.60
2018-10-21T11:20:43.376Z,24.30
2018-10-21T11:23:15.440Z,27.60
2018-10-21T11:25:45.352Z,29.80
2018-10-21T11:28:21.626Z,30.50
2018-10-21T11:30:53.489Z,31.40
2018-10-21T11:33:24.288Z,31.70
2018-10-21T11:35:55.143Z,32.10
2018-10-21T11:38:26.392Z,31.70
2018-10-21T11:40:59.983Z,29.40
2018-10-21T11:43:29.936Z,25.80
2018-10-21T11:46:07.743Z,23.40
2018-10-21T11:48:37.453Z,21.60
2018-10-21T11:51:07.336Z,19.90
2018-10-21T11:53:38.291Z,18.80
2018-10-21T11:56:11.924Z,18.50
2018-10-21T11:58:41.820Z,20.10
2018-10-21T12:01:12.708Z,20.20
2018-10-21T12:03:42.508Z,19.50
2018-10-21T12:06:13.348Z,21.80
2018-10-21T12:08:44.143Z,22.20
2018-10-21T12:11:13.928Z,21.80
2018-10-21T12:13:43.912Z,23.30
2018-10-21T12:16:15.809Z,23.20
2018-10-21T12:18:45.673Z,23.80
2018-10-21T12:21:16.920Z,26.30
2018-10-21T12:23:47.800Z,26.20
2018-10-21T12:26:17.640Z,24.50
2018-10-21T12:28:48.543Z,22.50
2018-10-21T12:31:18.451Z,23.50
2018-10-21T12:33:49.283Z,22.80
2018-10-21T12:36:23.536Z,22.50
2018-10-21T12:38:53.468Z,23.00
2018-10-21T12:41:23.624Z,21.50
2018-10-21T12:43:55.564Z,23.00
2018-10-21T12:46:26.392Z,25.80
2018-10-21T12:48:56.285Z,27.20
2018-10-21T12:51:27.112Z,27.80
2018-10-21T12:53:57.993Z,28.60
2018-10-21T12:56:28.819Z,27.50
2018-10-21T12:58:58.672Z,26.50
2018-10-21T13:01:28.480Z,28.20
2018-10-21T13:03:58.435Z,29.90
2018-10-21T13:06:28.535Z,29.60
2018-10-21T13:08:59.372Z,29.00
2018-10-21T13:11:30.252Z,26.60
2018-10-21T13:14:00.132Z,23.70
2018-10-21T13:16:31.008Z,22.00
2018-10-21T13:19:01.976Z,22.60
2018-10-21T13:21:32.809Z,24.10
2018-10-21T13:24:02.940Z,24.50
2018-10-21T13:26:33.851Z,24.20
2018-10-21T13:29:10.210Z,23.80
2018-10-21T13:31:43.727Z,23.60
2018-10-21T13:34:13.742Z,23.40
2018-10-21T13:36:43.528Z,23.70
2018-10-21T13:39:17.881Z,23.80
2018-10-21T13:41:47.752Z,24.10
2018-10-21T13:44:19.592Z,24.00
2018-10-21T13:46:49.517Z,24.00
2018-10-21T13:49:19.408Z,23.80
2018-10-21T13:51:49.451Z,24.10
2018-10-21T13:54:19.131Z,24.60
2018-10-21T13:56:48.984Z,25.80
2018-10-21T13:59:19.812Z,27.80
2018-10-21T14:01:50.747Z,27.70
2018-10-21T14:04:22.616Z,25.20
2018-10-21T14:06:56.618Z,23.80
2018-10-21T14:09:26.434Z,23.20
2018-10-21T14:11:56.335Z,22.80
2018-10-21T14:14:26.264Z,22.40
2018-10-21T14:16:57.196Z,22.30
2018-10-21T14:19:27.075Z,22.20
2018-10-21T14:21:57.941Z,22.40
2018-10-21T14:24:27.772Z,22.90
2018-10-21T14:26:57.735Z,23.50
2018-10-21T14:29:27.584Z,23.40
2018-10-21T14:31:57.483Z,24.20
2018-10-21T14:34:27.472Z,24.40
2018-10-21T14:36:57.523Z,23.50
2018-10-21T14:39:41.184Z,23.40
2018-10-21T14:42:15.133Z,22.80
2018-10-21T14:44:48.524Z,22.90
2018-10-21T14:47:20.985Z,22.20
2018-10-21T14:49:50.916Z,21.90
2018-10-21T14:52:20.803Z,21.70
2018-10-21T14:54:50.853Z,21.00
2018-10-21T14:57:21.735Z,21.20
2018-10-21T15:00:02.510Z,21.40
2018-10-21T15:02:32.344Z,20.90
2018-10-21T15:05:02.194Z,20.40
2018-10-21T15:07:34.147Z,20.50
2018-10-21T15:10:08.352Z,20.30
2018-10-21T15:12:44.863Z,19.70
2018-10-21T15:15:14.784Z,19.70
2018-10-21T15:17:45.608Z,19.80
2018-10-21T15:20:19.248Z,20.10
2018-10-21T15:22:50.142Z,20.20
2018-10-21T15:25:26.436Z,19.60
2018-10-21T15:27:56.499Z,19.10
2018-10-21T15:30:26.367Z,18.80
2018-10-21T15:32:57.275Z,18.60
2018-10-21T15:35:27.303Z,18.40
2018-10-21T15:37:57.221Z,18.20
2018-10-21T15:40:27.020Z,17.80
2018-10-21T15:42:56.928Z,17.20
2018-10-21T15:45:26.831Z,16.80
2018-10-21T15:48:04.657Z,16.50
2018-10-21T15:50:35.573Z,16.10
2018-10-21T15:53:06.387Z,15.60
2018-10-21T15:55:38.288Z,15.10
2018-10-21T15:58:08.169Z,14.60
2018-10-21T16:00:43.431Z,14.20
2018-10-21T16:03:15.233Z,13.80
2018-10-21T16:05:45.090Z,13.50
2018-10-21T16:08:20.535Z,13.20
2018-10-21T16:10:50.584Z,12.70
2018-10-21T16:13:21.416Z,12.00
2018-10-21T16:15:53.253Z,11.40
2018-10-21T16:18:23.157Z,10.90
2018-10-21T16:20:55.036Z,10.50
2018-10-21T16:23:25.825Z,10.40
2018-10-21T16:25:55.791Z,10.20
2018-10-21T16:28:26.678Z,9.90
2018-10-21T16:30:56.460Z,9.60
2018-10-21T16:33:27.332Z,9.30
2018-10-21T16:35:59.244Z,9.10
2018-10-21T16:38:29.169Z,8.90
2018-10-21T16:41:03.220Z,8.70
2018-10-21T16:43:40.565Z,8.70
2018-10-21T16:46:12.484Z,8.60
2018-10-21T16:48:43.376Z,8.50
2018-10-21T16:51:14.296Z,8.20
2018-10-21T16:53:50.076Z,8.10
2018-10-21T16:56:19.907Z,8.10
2018-10-21T16:58:53.039Z,8.10
2018-10-21T17:01:23.875Z,8.00
2018-10-21T17:03:55.808Z,8.10
2018-10-21T17:06:26.643Z,8.10
2018-10-21T17:09:01.235Z,8.20
2018-10-21T17:11:31.059Z,8.00
2018-10-21T17:14:07.141Z,7.80
2018-10-21T17:16:38.232Z,7.50
2018-10-21T17:19:09.526Z,7.20
2018-10-21T17:21:39.371Z,6.90
2018-10-21T17:26:56.592Z,6.50
2018-10-21T17:29:27.391Z,6.40
2018-10-21T17:31:57.372Z,6.30
2018-10-21T17:34:29.268Z,6.10
2018-10-21T17:36:59.128Z,6.00
2018-10-21T17:39:30.050Z,5.90
2018-10-21T17:42:04.096Z,5.70
2018-10-21T17:44:34.007Z,5.60
2018-10-21T17:47:04.975Z,5.50
2018-10-21T17:49:34.819Z,5.50
2018-10-21T17:52:05.883Z,5.40
2018-10-21T17:54:35.871Z,5.30
2018-10-21T17:57:06.831Z,5.30
2018-10-21T17:59:37.652Z,5.30
2018-10-21T18:02:07.431Z,5.40
2018-10-21T18:04:37.307Z,5.40
2018-10-21T18:07:14.727Z,5.30
2018-10-21T18:09:44.507Z,5.10
2018-10-21T18:12:15.308Z,5.00
2018-10-21T18:14:46.119Z,4.80
2018-10-21T18:17:15.963Z,4.70
2018-10-21T18:19:50.490Z,4.70
2018-10-21T18:22:20.299Z,4.60
2018-10-21T18:24:51.135Z,4.60
2018-10-21T18:27:21.704Z,4.60
2018-10-21T18:29:57.251Z,4.50
2018-10-21T18:32:27.153Z,4.50
2018-10-21T18:34:58.115Z,4.40
2018-10-21T18:37:29.019Z,4.30
2018-10-21T18:40:02.882Z,4.30
2018-10-21T18:42:32.866Z,4.20
2018-10-21T18:45:03.891Z,4.20
2018-10-21T18:47:38.302Z,4.10
2018-10-21T18:50:13.923Z,4.10
2018-10-21T18:52:45.871Z,4.10
2018-10-21T18:55:15.944Z,4.20
2018-10-21T18:57:45.794Z,4.20
2018-10-21T19:00:17.971Z,4.20
2018-10-21T19:02:47.832Z,4.20
2018-10-21T19:05:17.832Z,4.10
2018-10-21T19:07:48.943Z,4.10
2018-10-21T19:10:20.867Z,4.10
2018-10-21T19:13:00.049Z,4.00
2018-10-21T19:15:21.631Z,4.00
2018-10-21T19:17:55.235Z,3.90
2018-10-21T19:20:25.307Z,3.90
2018-10-21T19:22:55.307Z,3.80
2018-10-21T19:25:25.368Z,3.80
2018-10-21T19:27:56.375Z,3.80
2018-10-21T19:30:26.243Z,3.80
2018-10-21T19:32:56.327Z,3.80
2018-10-21T19:35:27.275Z,3.80
2018-10-21T19:37:57.159Z,3.90
2018-10-21T19:40:30.711Z,3.90
2018-10-21T19:43:06.091Z,3.80
2018-10-21T19:45:39.983Z,3.70
2018-10-21T19:48:11.615Z,3.70
2018-10-21T19:50:42.624Z,3.60
2018-10-21T19:53:12.619Z,3.60
2018-10-21T19:55:44.490Z,3.50
2018-10-21T19:58:21.558Z,3.60
2018-10-21T20:00:56.137Z,3.50
2018-10-21T20:03:27.124Z,3.40
2018-10-21T20:06:01.225Z,3.30
2018-10-21T20:08:38.499Z,3.20
2018-10-21T20:11:08.443Z,3.30
2018-10-21T20:13:39.315Z,3.40
2018-10-21T20:16:23.489Z,3.30
2018-10-21T20:18:54.425Z,3.20
2018-10-21T20:21:25.348Z,3.20
2018-10-21T20:23:55.203Z,3.20
2018-10-21T20:26:25.147Z,3.20
2018-10-21T20:29:00.291Z,3.20
2018-10-21T20:31:30.213Z,3.10
2018-10-21T20:34:00.294Z,3.10
2018-10-21T20:36:30.256Z,3.00
2018-10-21T20:39:00.119Z,3.10
2018-10-21T20:41:30.036Z,3.10
2018-10-21T20:44:01.885Z,3.10
2018-10-21T20:46:35.831Z,3.10
2018-10-21T20:49:06.714Z,3.10
2018-10-21T20:51:36.933Z,3.20
2018-10-21T20:54:06.754Z,3.30
2018-10-21T20:56:36.659Z,3.20
2018-10-21T20:59:06.583Z,3.10
2018-10-21T21:01:36.611Z,3.00
2018-10-21T21:04:07.515Z,3.00
2018-10-21T21:06:38.443Z,3.00
2018-10-21T21:09:09.549Z,3.00
2018-10-21T21:11:39.570Z,3.00
2018-10-21T21:14:15.675Z,2.90
2018-10-21T21:16:45.547Z,2.90
2018-10-21T21:19:17.551Z,2.80
2018-10-21T21:21:47.591Z,2.80
2018-10-21T21:24:17.615Z,2.80
2018-10-21T21:26:51.159Z,2.80
2018-10-21T21:29:22.155Z,2.80
2018-10-21T21:31:57.083Z,2.70
2018-10-21T21:34:27.159Z,2.70
2018-10-21T21:36:57.467Z,2.70
2018-10-21T21:39:28.455Z,2.70
2018-10-21T21:41:58.376Z,2.70
2018-10-21T21:44:28.283Z,2.50
2018-10-21T21:46:58.451Z,2.40
2018-10-21T21:49:28.500Z,2.40
2018-10-21T21:51:59.585Z,2.40
2018-10-21T21:54:34.449Z,2.40
2018-10-21T21:57:04.909Z,2.30
2018-10-21T22:00:13.451Z,2.30
2018-10-21T22:02:54.740Z,2.30
2018-10-21T22:05:24.769Z,2.20
2018-10-21T22:07:54.803Z,2.10
2018-10-21T22:10:25.888Z,2.10
2018-10-21T22:12:57.837Z,2.00
2018-10-21T22:15:36.503Z,2.00
2018-10-21T22:18:06.624Z,2.00
2018-10-21T22:20:36.589Z,2.00
2018-10-21T22:23:10.555Z,1.90
2018-10-21T22:25:41.496Z,2.00
2018-10-21T22:28:12.586Z,2.00
2018-10-21T22:30:43.595Z,1.90
2018-10-21T22:33:14.617Z,2.00
2018-10-21T22:35:45.731Z,2.10
2018-10-21T22:38:16.808Z,2.10
2018-10-21T22:40:50.424Z,2.10
2018-10-21T22:43:20.317Z,2.10
2018-10-21T22:45:50.467Z,2.10
2018-10-21T22:48:23.536Z,2.10
2018-10-21T22:50:53.469Z,2.10
2018-10-21T22:53:24.528Z,2.00
2018-10-21T22:55:54.474Z,2.00
2018-10-21T22:58:25.370Z,2.00
2018-10-21T23:00:56.327Z,1.90
2018-10-21T23:03:26.276Z,1.90
2018-10-21T23:05:57.209Z,1.80
2018-10-21T23:08:27.056Z,1.80
2018-10-21T23:10:57.045Z,1.80
2018-10-21T23:13:33.119Z,1.80
2018-10-21T23:16:03.165Z,1.90
2018-10-21T23:18:33.518Z,1.90
2018-10-21T23:21:03.580Z,1.80
2018-10-21T23:23:33.652Z,1.70
2018-10-21T23:26:03.687Z,1.60
2018-10-21T23:28:33.580Z,1.50
2018-10-21T23:31:03.654Z,1.50
2018-10-21T23:33:34.723Z,1.50
2018-10-21T23:36:04.705Z,1.50
2018-10-21T23:38:34.619Z,1.50
2018-10-21T23:41:04.590Z,1.60
2018-10-21T23:43:35.470Z,1.70
2018-10-21T23:46:05.593Z,1.70
2018-10-21T23:48:36.558Z,1.70
2018-10-21T23:51:07.446Z,1.70
2018-10-21T23:53:38.474Z,1.80
2018-10-21T23:56:09.463Z,1.80
2018-10-21T23:58:39.307Z,1.70
